sensor_id;sensor_type;location;lat;lon;timestamp;temperature;humidity
1538;DHT22;12022;52.266;10.522;2022-10-15T00:00:50;15.60;99.90
1538;DHT22;12022;52.266;10.522;2022-10-15T00:03:17;15.50;99.90
1538;DHT22;12022;52.266;10.522;2022-10-15T00:05:44;15.50;99.90
1538;DHT22;12022;52.266;10.522;2022-10-15T00:08:11;15.60;99.90
1538;DHT22;12022;52.266;10.522;2022-10-15T00:10:39;15.50;99.90
1538;DHT22;12022;52.266;10.522;2022-10-15T00:13:06;15.50;99.90
1538;DHT22;12022;52.266;10.522;2022-10-15T00:15:35;15.50;99.90
1538;DHT22;12022;52.266;10.522;2022-10-15T00:18:02;15.50;99.90
1538;DHT22;12022;52.266;10.522;2022-10-15T00:20:29;15.40;99.90
1538;DHT22;12022;52.266;10.522;2022-10-15T00:22:57;15.40;99.90
1538;DHT22;12022;52.266;10.522;2022-10-15T00:25:24;15.40;99.90
1538;DHT22;12022;52.266;10.522;2022-10-15T00:27:51;15.40;99.90
1538;DHT22;12022;52.266;10.522;2022-10-15T00:30:18;15.40;99.90
1538;DHT22;12022;52.266;10.522;2022-10-15T00:32:45;15.40;99.90
1538;DHT22;12022;52.266;10.522;2022-10-15T00:35:12;15.40;99.90
1538;DHT22;12022;52.266;10.522;2022-10-15T00:37:38;15.40;99.90
1538;DHT22;12022;52.266;10.522;2022-10-15T00:40:06;15.50;99.90
1538;DHT22;12022;52.266;10.522;2022-10-15T00:42:34;15.50;99.90
1538;DHT22;12022;52.266;10.522;2022-10-15T00:45:00;15.50;99.90
1538;DHT22;12022;52.266;10.522;2022-10-15T00:47:43;15.60;99.90
1538;DHT22;12022;52.266;10.522;2022-10-15T00:50:17;15.60;99.90
1538;DHT22;12022;52.266;10.522;2022-10-15T00:52:57;15.60;99.90
1538;DHT22;12022;52.266;10.522;2022-10-15T00:55:30;15.60;99.90
1538;DHT22;12022;52.266;10.522;2022-10-15T00:58:02;15.60;99.90
1538;DHT22;12022;52.266;10.522;2022-10-15T01:00:31;15.70;99.90
1538;DHT22;12022;52.266;10.522;2022-10-15T01:02:59;15.70;99.90
1538;DHT22;12022;52.266;10.522;2022-10-15T01:05:26;15.70;99.90
1538;DHT22;12022;52.266;10.522;2022-10-15T01:07:53;15.70;99.90
1538;DHT22;12022;52.266;10.522;2022-10-15T01:18:42;15.80;99.90
1538;DHT22;12022;52.266;10.522;2022-10-15T01:21:15;15.80;99.90
1538;DHT22;12022;52.266;10.522;2022-10-15T01:24:26;15.80;99.90
1538;DHT22;12022;52.266;10.522;2022-10-15T01:27:30;15.80;99.90
1538;DHT22;12022;52.266;10.522;2022-10-15T01:32:35;15.80;99.90
1538;DHT22;12022;52.266;10.522;2022-10-15T01:35:27;15.80;99.90
1538;DHT22;12022;52.266;10.522;2022-10-15T01:37:59;15.80;99.90
1538;DHT22;12022;52.266;10.522;2022-10-15T01:40:35;15.90;99.90
1538;DHT22;12022;52.266;10.522;2022-10-15T01:43:14;15.90;99.90
1538;DHT22;12022;52.266;10.522;2022-10-15T01:45:55;15.80;99.90
1538;DHT22;12022;52.266;10.522;2022-10-15T01:48:26;15.80;99.90
1538;DHT22;12022;52.266;10.522;2022-10-15T01:50:56;15.80;99.90
1538;DHT22;12022;52.266;10.522;2022-10-15T01:53:26;15.80;99.90
1538;DHT22;12022;52.266;10.522;2022-10-15T01:56:04;15.80;99.90
1538;DHT22;12022;52.266;10.522;2022-10-15T01:58:34;15.80;99.90
1538;DHT22;12022;52.266;10.522;2022-10-15T02:01:04;15.90;99.90
1538;DHT22;12022;52.266;10.522;2022-10-15T02:03:31;15.90;99.90
1538;DHT22;12022;52.266;10.522;2022-10-15T02:06:03;15.90;99.90
1538;DHT22;12022;52.266;10.522;2022-10-15T02:09:00;16.00;99.90
1538;DHT22;12022;52.266;10.522;2022-10-15T02:11:35;15.80;99.90
1538;DHT22;12022;52.266;10.522;2022-10-15T02:14:13;15.90;99.90
1538;DHT22;12022;52.266;10.522;2022-10-15T02:17:01;15.90;99.90
1538;DHT22;12022;52.266;10.522;2022-10-15T02:24:36;15.90;99.90
1538;DHT22;12022;52.266;10.522;2022-10-15T02:27:07;15.90;99.90
1538;DHT22;12022;52.266;10.522;2022-10-15T02:29:35;15.90;99.90
1538;DHT22;12022;52.266;10.522;2022-10-15T02:32:05;15.90;99.90
1538;DHT22;12022;52.266;10.522;2022-10-15T02:34:35;15.90;99.90
1538;DHT22;12022;52.266;10.522;2022-10-15T02:37:03;15.90;99.90
1538;DHT22;12022;52.266;10.522;2022-10-15T02:39:32;15.80;99.90
1538;DHT22;12022;52.266;10.522;2022-10-15T02:42:00;15.80;99.90
1538;DHT22;12022;52.266;10.522;2022-10-15T02:44:27;15.80;99.90
1538;DHT22;12022;52.266;10.522;2022-10-15T02:46:56;15.70;99.90
1538;DHT22;12022;52.266;10.522;2022-10-15T02:49:24;15.70;99.90
1538;DHT22;12022;52.266;10.522;2022-10-15T02:51:51;15.70;99.90
1538;DHT22;12022;52.266;10.522;2022-10-15T02:54:19;15.70;99.90
1538;DHT22;12022;52.266;10.522;2022-10-15T02:56:47;15.70;99.90
1538;DHT22;12022;52.266;10.522;2022-10-15T02:59:14;15.70;99.90
1538;DHT22;12022;52.266;10.522;2022-10-15T03:01:41;15.70;99.90
1538;DHT22;12022;52.266;10.522;2022-10-15T03:04:08;15.80;99.90
1538;DHT22;12022;52.266;10.522;2022-10-15T03:06:35;15.80;99.90
1538;DHT22;12022;52.266;10.522;2022-10-15T03:09:02;15.80;99.90
1538;DHT22;12022;52.266;10.522;2022-10-15T03:11:30;15.80;99.90
1538;DHT22;12022;52.266;10.522;2022-10-15T03:13:57;15.80;99.90
1538;DHT22;12022;52.266;10.522;2022-10-15T03:16:24;15.80;99.90
1538;DHT22;12022;52.266;10.522;2022-10-15T03:18:51;15.80;99.90
1538;DHT22;12022;52.266;10.522;2022-10-15T03:21:18;15.80;99.90
1538;DHT22;12022;52.266;10.522;2022-10-15T03:23:46;15.70;99.90
1538;DHT22;12022;52.266;10.522;2022-10-15T03:26:13;15.60;99.90
1538;DHT22;12022;52.266;10.522;2022-10-15T03:28:40;15.60;99.90
1538;DHT22;12022;52.266;10.522;2022-10-15T03:31:07;15.60;99.90
1538;DHT22;12022;52.266;10.522;2022-10-15T03:33:34;15.50;99.90
1538;DHT22;12022;52.266;10.522;2022-10-15T03:36:01;15.40;99.90
1538;DHT22;12022;52.266;10.522;2022-10-15T03:38:28;15.40;99.90
1538;DHT22;12022;52.266;10.522;2022-10-15T03:40:55;15.30;99.90
1538;DHT22;12022;52.266;10.522;2022-10-15T03:43:24;15.30;99.90
1538;DHT22;12022;52.266;10.522;2022-10-15T03:45:52;15.20;99.90
1538;DHT22;12022;52.266;10.522;2022-10-15T03:48:19;15.10;99.90
1538;DHT22;12022;52.266;10.522;2022-10-15T03:50:46;15.10;99.90
1538;DHT22;12022;52.266;10.522;2022-10-15T03:53:14;14.80;99.90
1538;DHT22;12022;52.266;10.522;2022-10-15T03:55:41;15.00;99.90
1538;DHT22;12022;52.266;10.522;2022-10-15T03:58:08;14.90;99.90
1538;DHT22;12022;52.266;10.522;2022-10-15T04:00:35;14.80;99.90
1538;DHT22;12022;52.266;10.522;2022-10-15T04:03:05;14.80;99.90
1538;DHT22;12022;52.266;10.522;2022-10-15T04:05:32;14.80;99.90
1538;DHT22;12022;52.266;10.522;2022-10-15T04:07:59;14.70;99.90
1538;DHT22;12022;52.266;10.522;2022-10-15T04:10:26;14.70;99.90
1538;DHT22;12022;52.266;10.522;2022-10-15T04:12:55;14.70;99.90
1538;DHT22;12022;52.266;10.522;2022-10-15T04:15:22;14.60;99.90
1538;DHT22;12022;52.266;10.522;2022-10-15T04:17:53;14.50;99.90
1538;DHT22;12022;52.266;10.522;2022-10-15T04:20:21;14.40;99.90
1538;DHT22;12022;52.266;10.522;2022-10-15T04:22:48;14.40;99.90
1538;DHT22;12022;52.266;10.522;2022-10-15T04:25:15;14.40;99.90
1538;DHT22;12022;52.266;10.522;2022-10-15T04:27:43;14.30;99.90
1538;DHT22;12022;52.266;10.522;2022-10-15T04:30:11;14.30;99.90
1538;DHT22;12022;52.266;10.522;2022-10-15T04:32:38;14.30;99.90
1538;DHT22;12022;52.266;10.522;2022-10-15T04:35:06;14.20;99.90
1538;DHT22;12022;52.266;10.522;2022-10-15T04:37:34;14.10;99.90
1538;DHT22;12022;52.266;10.522;2022-10-15T04:40:01;14.10;99.90
1538;DHT22;12022;52.266;10.522;2022-10-15T04:42:30;14.10;99.90
1538;DHT22;12022;52.266;10.522;2022-10-15T04:44:57;14.00;99.90
1538;DHT22;12022;52.266;10.522;2022-10-15T04:47:25;14.00;99.90
1538;DHT22;12022;52.266;10.522;2022-10-15T04:49:52;14.00;99.90
1538;DHT22;12022;52.266;10.522;2022-10-15T04:52:19;14.00;99.90
1538;DHT22;12022;52.266;10.522;2022-10-15T04:54:46;14.00;99.90
1538;DHT22;12022;52.266;10.522;2022-10-15T04:57:13;13.90;99.90
1538;DHT22;12022;52.266;10.522;2022-10-15T04:59:41;13.90;99.90
1538;DHT22;12022;52.266;10.522;2022-10-15T05:02:10;13.90;99.90
1538;DHT22;12022;52.266;10.522;2022-10-15T05:04:37;14.00;99.90
1538;DHT22;12022;52.266;10.522;2022-10-15T05:07:04;14.00;99.90
1538;DHT22;12022;52.266;10.522;2022-10-15T05:09:31;14.00;99.90
1538;DHT22;12022;52.266;10.522;2022-10-15T05:12:02;14.10;99.90
1538;DHT22;12022;52.266;10.522;2022-10-15T05:14:29;14.10;99.90
1538;DHT22;12022;52.266;10.522;2022-10-15T05:16:56;14.20;99.90
1538;DHT22;12022;52.266;10.522;2022-10-15T05:19:23;14.20;99.90
1538;DHT22;12022;52.266;10.522;2022-10-15T05:21:50;14.20;99.90
1538;DHT22;12022;52.266;10.522;2022-10-15T05:24:16;14.20;99.90
1538;DHT22;12022;52.266;10.522;2022-10-15T05:26:43;14.20;99.90
1538;DHT22;12022;52.266;10.522;2022-10-15T05:29:10;14.30;99.90
1538;DHT22;12022;52.266;10.522;2022-10-15T05:31:37;14.30;99.90
1538;DHT22;12022;52.266;10.522;2022-10-15T05:34:07;14.40;99.90
1538;DHT22;12022;52.266;10.522;2022-10-15T05:36:34;14.40;99.90
1538;DHT22;12022;52.266;10.522;2022-10-15T05:39:03;14.40;99.90
1538;DHT22;12022;52.266;10.522;2022-10-15T05:41:32;14.40;99.90
1538;DHT22;12022;52.266;10.522;2022-10-15T05:43:59;14.50;99.90
1538;DHT22;12022;52.266;10.522;2022-10-15T05:46:26;14.50;99.90
1538;DHT22;12022;52.266;10.522;2022-10-15T05:48:57;14.60;99.90
1538;DHT22;12022;52.266;10.522;2022-10-15T05:51:25;14.60;99.90
1538;DHT22;12022;52.266;10.522;2022-10-15T05:53:54;14.70;99.90
1538;DHT22;12022;52.266;10.522;2022-10-15T05:56:21;14.80;99.90
1538;DHT22;12022;52.266;10.522;2022-10-15T05:58:49;14.80;99.90
1538;DHT22;12022;52.266;10.522;2022-10-15T06:01:16;14.90;99.90
1538;DHT22;12022;52.266;10.522;2022-10-15T06:03:43;14.90;99.90
1538;DHT22;12022;52.266;10.522;2022-10-15T06:06:18;15.00;99.90
1538;DHT22;12022;52.266;10.522;2022-10-15T06:08:46;15.00;99.90
1538;DHT22;12022;52.266;10.522;2022-10-15T06:11:13;15.10;99.90
1538;DHT22;12022;52.266;10.522;2022-10-15T06:13:41;15.10;99.90
1538;DHT22;12022;52.266;10.522;2022-10-15T06:16:09;15.20;99.90
1538;DHT22;12022;52.266;10.522;2022-10-15T06:18:37;15.20;99.90
1538;DHT22;12022;52.266;10.522;2022-10-15T06:21:05;15.30;99.90
1538;DHT22;12022;52.266;10.522;2022-10-15T06:23:33;15.30;99.90
1538;DHT22;12022;52.266;10.522;2022-10-15T06:26:04;15.40;99.90
1538;DHT22;12022;52.266;10.522;2022-10-15T06:28:31;15.40;99.90
1538;DHT22;12022;52.266;10.522;2022-10-15T06:30:59;15.50;99.90
1538;DHT22;12022;52.266;10.522;2022-10-15T06:33:27;15.50;99.90
1538;DHT22;12022;52.266;10.522;2022-10-15T06:35:59;15.60;99.90
1538;DHT22;12022;52.266;10.522;2022-10-15T06:38:26;15.60;99.90
1538;DHT22;12022;52.266;10.522;2022-10-15T06:40:53;15.70;99.90
1538;DHT22;12022;52.266;10.522;2022-10-15T06:43:20;15.70;99.90
1538;DHT22;12022;52.266;10.522;2022-10-15T06:45:46;15.80;99.90
1538;DHT22;12022;52.266;10.522;2022-10-15T06:48:13;15.80;99.90
1538;DHT22;12022;52.266;10.522;2022-10-15T06:50:40;15.90;99.90
1538;DHT22;12022;52.266;10.522;2022-10-15T06:53:07;15.90;99.90
1538;DHT22;12022;52.266;10.522;2022-10-15T06:55:34;15.90;99.90
1538;DHT22;12022;52.266;10.522;2022-10-15T06:58:01;16.00;99.90
1538;DHT22;12022;52.266;10.522;2022-10-15T07:00:28;16.10;99.90
1538;DHT22;12022;52.266;10.522;2022-10-15T07:02:55;16.20;99.90
1538;DHT22;12022;52.266;10.522;2022-10-15T07:05:22;16.30;99.90
1538;DHT22;12022;52.266;10.522;2022-10-15T07:07:53;16.30;99.90
1538;DHT22;12022;52.266;10.522;2022-10-15T07:10:22;16.50;99.90
1538;DHT22;12022;52.266;10.522;2022-10-15T07:12:52;16.50;99.90
1538;DHT22;12022;52.266;10.522;2022-10-15T07:15:21;16.60;99.90
1538;DHT22;12022;52.266;10.522;2022-10-15T07:17:49;16.70;99.90
1538;DHT22;12022;52.266;10.522;2022-10-15T07:20:18;16.80;99.90
1538;DHT22;12022;52.266;10.522;2022-10-15T07:22:50;16.90;99.90
1538;DHT22;12022;52.266;10.522;2022-10-15T07:25:21;17.00;99.90
1538;DHT22;12022;52.266;10.522;2022-10-15T07:27:48;17.10;99.90
1538;DHT22;12022;52.266;10.522;2022-10-15T07:30:16;17.10;99.90
1538;DHT22;12022;52.266;10.522;2022-10-15T07:32:43;17.20;99.90
1538;DHT22;12022;52.266;10.522;2022-10-15T07:35:12;17.30;99.90
1538;DHT22;12022;52.266;10.522;2022-10-15T07:37:40;17.40;99.90
1538;DHT22;12022;52.266;10.522;2022-10-15T07:40:07;17.60;99.90
1538;DHT22;12022;52.266;10.522;2022-10-15T07:42:34;17.70;99.90
1538;DHT22;12022;52.266;10.522;2022-10-15T07:45:02;17.80;99.90
1538;DHT22;12022;52.266;10.522;2022-10-15T07:47:29;17.80;99.90
1538;DHT22;12022;52.266;10.522;2022-10-15T07:49:56;18.00;99.90
1538;DHT22;12022;52.266;10.522;2022-10-15T07:52:23;18.10;99.90
1538;DHT22;12022;52.266;10.522;2022-10-15T07:54:50;18.30;99.90
1538;DHT22;12022;52.266;10.522;2022-10-15T07:57:17;18.40;99.90
1538;DHT22;12022;52.266;10.522;2022-10-15T07:59:44;18.50;99.90
1538;DHT22;12022;52.266;10.522;2022-10-15T08:02:18;18.50;99.90
1538;DHT22;12022;52.266;10.522;2022-10-15T08:04:47;18.50;99.90
1538;DHT22;12022;52.266;10.522;2022-10-15T08:07:14;18.60;99.90
1538;DHT22;12022;52.266;10.522;2022-10-15T08:09:43;18.70;99.90
1538;DHT22;12022;52.266;10.522;2022-10-15T08:12:10;18.60;99.90
1538;DHT22;12022;52.266;10.522;2022-10-15T08:14:37;18.70;99.90
1538;DHT22;12022;52.266;10.522;2022-10-15T08:17:05;18.80;99.90
1538;DHT22;12022;52.266;10.522;2022-10-15T08:19:32;18.90;99.90
1538;DHT22;12022;52.266;10.522;2022-10-15T08:21:59;18.90;99.90
1538;DHT22;12022;52.266;10.522;2022-10-15T08:24:26;18.90;99.90
1538;DHT22;12022;52.266;10.522;2022-10-15T08:26:54;18.90;99.90
1538;DHT22;12022;52.266;10.522;2022-10-15T08:29:22;18.90;99.90
1538;DHT22;12022;52.266;10.522;2022-10-15T08:31:51;19.00;99.90
1538;DHT22;12022;52.266;10.522;2022-10-15T08:34:18;19.00;99.90
1538;DHT22;12022;52.266;10.522;2022-10-15T08:36:45;19.10;99.90
1538;DHT22;12022;52.266;10.522;2022-10-15T08:39:12;19.10;99.90
1538;DHT22;12022;52.266;10.522;2022-10-15T08:41:58;19.10;99.90
1538;DHT22;12022;52.266;10.522;2022-10-15T08:44:29;19.20;99.90
1538;DHT22;12022;52.266;10.522;2022-10-15T08:49:51;19.40;99.90
1538;DHT22;12022;52.266;10.522;2022-10-15T08:52:41;19.50;99.90
1538;DHT22;12022;52.266;10.522;2022-10-15T08:55:13;19.70;99.90
1538;DHT22;12022;52.266;10.522;2022-10-15T08:57:58;19.90;99.90
1538;DHT22;12022;52.266;10.522;2022-10-15T09:00:49;20.00;99.90
1538;DHT22;12022;52.266;10.522;2022-10-15T09:06:33;20.30;99.90
1538;DHT22;12022;52.266;10.522;2022-10-15T09:12:02;20.40;99.90
1538;DHT22;12022;52.266;10.522;2022-10-15T09:14:36;20.50;99.90
1538;DHT22;12022;52.266;10.522;2022-10-15T09:17:22;20.50;99.90
1538;DHT22;12022;52.266;10.522;2022-10-15T09:19:55;20.60;99.90
1538;DHT22;12022;52.266;10.522;2022-10-15T09:22:28;20.70;99.90
1538;DHT22;12022;52.266;10.522;2022-10-15T09:24:56;20.70;99.90
1538;DHT22;12022;52.266;10.522;2022-10-15T09:27:36;20.70;99.90
1538;DHT22;12022;52.266;10.522;2022-10-15T09:33:02;20.70;99.90
1538;DHT22;12022;52.266;10.522;2022-10-15T09:35:40;20.70;99.90
1538;DHT22;12022;52.266;10.522;2022-10-15T09:38:23;20.70;99.90
1538;DHT22;12022;52.266;10.522;2022-10-15T09:43:45;20.80;99.90
1538;DHT22;12022;52.266;10.522;2022-10-15T09:46:12;20.80;99.90
1538;DHT22;12022;52.266;10.522;2022-10-15T09:51:27;20.90;99.90
1538;DHT22;12022;52.266;10.522;2022-10-15T09:54:15;21.00;99.90
1538;DHT22;12022;52.266;10.522;2022-10-15T09:56:54;21.10;99.90
1538;DHT22;12022;52.266;10.522;2022-10-15T09:59:22;21.10;99.90
1538;DHT22;12022;52.266;10.522;2022-10-15T10:02:01;21.10;99.90
1538;DHT22;12022;52.266;10.522;2022-10-15T10:04:33;21.20;99.90
1538;DHT22;12022;52.266;10.522;2022-10-15T10:07:02;21.30;99.90
1538;DHT22;12022;52.266;10.522;2022-10-15T10:09:54;21.30;99.90
1538;DHT22;12022;52.266;10.522;2022-10-15T10:12:28;21.20;99.90
1538;DHT22;12022;52.266;10.522;2022-10-15T10:17:52;20.90;99.90
1538;DHT22;12022;52.266;10.522;2022-10-15T10:20:25;20.60;99.90
1538;DHT22;12022;52.266;10.522;2022-10-15T10:27:56;20.30;99.90
1538;DHT22;12022;52.266;10.522;2022-10-15T10:30:24;20.40;99.90
1538;DHT22;12022;52.266;10.522;2022-10-15T10:32:58;20.50;99.90
1538;DHT22;12022;52.266;10.522;2022-10-15T10:35:42;20.60;99.90
1538;DHT22;12022;52.266;10.522;2022-10-15T10:38:23;20.70;99.90
1538;DHT22;12022;52.266;10.522;2022-10-15T10:40:53;20.70;99.90
1538;DHT22;12022;52.266;10.522;2022-10-15T10:43:25;20.70;99.90
1538;DHT22;12022;52.266;10.522;2022-10-15T10:51:09;20.80;99.90
1538;DHT22;12022;52.266;10.522;2022-10-15T10:53:55;20.90;99.90
1538;DHT22;12022;52.266;10.522;2022-10-15T10:56:29;20.90;99.90
1538;DHT22;12022;52.266;10.522;2022-10-15T10:59:48;20.90;99.90
1538;DHT22;12022;52.266;10.522;2022-10-15T11:01:50;21.10;99.90
1538;DHT22;12022;52.266;10.522;2022-10-15T11:07:21;21.50;99.90
1538;DHT22;12022;52.266;10.522;2022-10-15T11:12:47;21.50;99.90
1538;DHT22;12022;52.266;10.522;2022-10-15T11:41:14;20.50;99.90
1538;DHT22;12022;52.266;10.522;2022-10-15T11:44:22;20.40;99.90
1538;DHT22;12022;52.266;10.522;2022-10-15T11:58:29;20.20;99.90
1538;DHT22;12022;52.266;10.522;2022-10-15T12:01:11;20.10;99.90
1538;DHT22;12022;52.266;10.522;2022-10-15T12:04:05;20.10;99.90
1538;DHT22;12022;52.266;10.522;2022-10-15T12:06:43;20.10;99.90
1538;DHT22;12022;52.266;10.522;2022-10-15T12:09:14;20.10;99.90
1538;DHT22;12022;52.266;10.522;2022-10-15T12:12:02;20.10;99.90
1538;DHT22;12022;52.266;10.522;2022-10-15T12:15:03;20.10;99.90
1538;DHT22;12022;52.266;10.522;2022-10-15T12:20:11;20.00;99.90
1538;DHT22;12022;52.266;10.522;2022-10-15T12:28:18;20.00;99.90
1538;DHT22;12022;52.266;10.522;2022-10-15T12:31:06;19.90;99.90
1538;DHT22;12022;52.266;10.522;2022-10-15T12:36:28;19.90;99.90
1538;DHT22;12022;52.266;10.522;2022-10-15T12:39:00;20.00;99.90
1538;DHT22;12022;52.266;10.522;2022-10-15T12:41:44;20.10;99.90
1538;DHT22;12022;52.266;10.522;2022-10-15T12:44:24;20.20;99.90
1538;DHT22;12022;52.266;10.522;2022-10-15T12:46:53;20.40;99.90
1538;DHT22;12022;52.266;10.522;2022-10-15T12:51:54;20.80;99.90
1538;DHT22;12022;52.266;10.522;2022-10-15T12:54:41;20.90;99.90
1538;DHT22;12022;52.266;10.522;2022-10-15T13:00:02;21.00;99.90
1538;DHT22;12022;52.266;10.522;2022-10-15T13:02:39;20.90;99.90
1538;DHT22;12022;52.266;10.522;2022-10-15T13:05:26;20.70;99.90
1538;DHT22;12022;52.266;10.522;2022-10-15T13:07:55;20.60;99.90
1538;DHT22;12022;52.266;10.522;2022-10-15T13:10:47;20.40;99.90
1538;DHT22;12022;52.266;10.522;2022-10-15T13:13:18;20.30;99.90
1538;DHT22;12022;52.266;10.522;2022-10-15T13:15:54;20.20;99.90
1538;DHT22;12022;52.266;10.522;2022-10-15T13:18:24;20.10;99.90
1538;DHT22;12022;52.266;10.522;2022-10-15T13:20:52;20.20;99.90
1538;DHT22;12022;52.266;10.522;2022-10-15T13:23:23;20.20;99.90
1538;DHT22;12022;52.266;10.522;2022-10-15T13:28:43;20.50;99.90
1538;DHT22;12022;52.266;10.522;2022-10-15T13:31:30;20.70;99.90
1538;DHT22;12022;52.266;10.522;2022-10-15T13:36:43;21.00;99.90
1538;DHT22;12022;52.266;10.522;2022-10-15T13:39:35;20.90;99.90
1538;DHT22;12022;52.266;10.522;2022-10-15T13:42:23;21.00;99.90
1538;DHT22;12022;52.266;10.522;2022-10-15T13:45:13;20.80;99.90
1538;DHT22;12022;52.266;10.522;2022-10-15T13:47:46;20.60;99.90
1538;DHT22;12022;52.266;10.522;2022-10-15T13:50:24;20.50;99.90
1538;DHT22;12022;52.266;10.522;2022-10-15T13:52:53;20.50;99.90
1538;DHT22;12022;52.266;10.522;2022-10-15T13:55:23;20.50;99.90
1538;DHT22;12022;52.266;10.522;2022-10-15T14:00:38;20.70;99.90
1538;DHT22;12022;52.266;10.522;2022-10-15T14:05:33;20.60;99.90
1538;DHT22;12022;52.266;10.522;2022-10-15T14:08:00;20.50;99.90
1538;DHT22;12022;52.266;10.522;2022-10-15T14:10:27;20.40;99.90
1538;DHT22;12022;52.266;10.522;2022-10-15T14:12:54;20.30;99.90
1538;DHT22;12022;52.266;10.522;2022-10-15T14:18:07;20.30;99.90
1538;DHT22;12022;52.266;10.522;2022-10-15T14:20:34;20.20;99.90
1538;DHT22;12022;52.266;10.522;2022-10-15T14:23:02;20.20;99.90
1538;DHT22;12022;52.266;10.522;2022-10-15T14:25:29;20.20;99.90
1538;DHT22;12022;52.266;10.522;2022-10-15T14:27:56;20.20;99.90
1538;DHT22;12022;52.266;10.522;2022-10-15T14:30:33;20.20;99.90
1538;DHT22;12022;52.266;10.522;2022-10-15T14:33:02;20.20;99.90
1538;DHT22;12022;52.266;10.522;2022-10-15T14:35:33;20.20;99.90
1538;DHT22;12022;52.266;10.522;2022-10-15T14:40:35;20.10;99.90
1538;DHT22;12022;52.266;10.522;2022-10-15T14:43:14;20.10;99.90
1538;DHT22;12022;52.266;10.522;2022-10-15T14:48:23;20.10;99.90
1538;DHT22;12022;52.266;10.522;2022-10-15T14:50:51;20.10;99.90
1538;DHT22;12022;52.266;10.522;2022-10-15T14:53:31;20.20;99.90
1538;DHT22;12022;52.266;10.522;2022-10-15T14:56:12;20.30;99.90
1538;DHT22;12022;52.266;10.522;2022-10-15T14:58:46;20.40;99.90
1538;DHT22;12022;52.266;10.522;2022-10-15T15:01:14;20.40;99.90
1538;DHT22;12022;52.266;10.522;2022-10-15T15:03:44;20.50;99.90
1538;DHT22;12022;52.266;10.522;2022-10-15T15:06:12;20.50;99.90
1538;DHT22;12022;52.266;10.522;2022-10-15T15:08:40;20.50;99.90
1538;DHT22;12022;52.266;10.522;2022-10-15T15:11:11;20.50;99.90
1538;DHT22;12022;52.266;10.522;2022-10-15T15:13:41;20.50;99.90
1538;DHT22;12022;52.266;10.522;2022-10-15T15:16:12;20.50;99.90
1538;DHT22;12022;52.266;10.522;2022-10-15T15:18:39;20.50;99.90
1538;DHT22;12022;52.266;10.522;2022-10-15T15:21:19;20.50;99.90
1538;DHT22;12022;52.266;10.522;2022-10-15T15:23:47;20.50;99.90
1538;DHT22;12022;52.266;10.522;2022-10-15T15:26:15;20.60;99.90
1538;DHT22;12022;52.266;10.522;2022-10-15T15:28:42;20.60;99.90
1538;DHT22;12022;52.266;10.522;2022-10-15T15:31:15;20.60;99.90
1538;DHT22;12022;52.266;10.522;2022-10-15T15:33:42;20.60;99.90
1538;DHT22;12022;52.266;10.522;2022-10-15T15:36:13;20.60;99.90
1538;DHT22;12022;52.266;10.522;2022-10-15T15:38:49;20.50;99.90
1538;DHT22;12022;52.266;10.522;2022-10-15T15:41:18;20.50;99.90
1538;DHT22;12022;52.266;10.522;2022-10-15T15:43:45;20.40;99.90
1538;DHT22;12022;52.266;10.522;2022-10-15T15:46:13;20.30;99.90
1538;DHT22;12022;52.266;10.522;2022-10-15T15:48:41;20.30;99.90
1538;DHT22;12022;52.266;10.522;2022-10-15T15:53:44;20.20;99.90
1538;DHT22;12022;52.266;10.522;2022-10-15T15:56:11;20.20;99.90
1538;DHT22;12022;52.266;10.522;2022-10-15T15:58:37;20.10;99.90
1538;DHT22;12022;52.266;10.522;2022-10-15T16:01:04;20.10;99.90
1538;DHT22;12022;52.266;10.522;2022-10-15T16:03:31;20.10;99.90
1538;DHT22;12022;52.266;10.522;2022-10-15T16:05:58;20.10;99.90
1538;DHT22;12022;52.266;10.522;2022-10-15T16:08:25;20.00;99.90
1538;DHT22;12022;52.266;10.522;2022-10-15T16:10:52;20.00;99.90
1538;DHT22;12022;52.266;10.522;2022-10-15T16:13:20;19.90;99.90
1538;DHT22;12022;52.266;10.522;2022-10-15T16:15:46;19.90;99.90
1538;DHT22;12022;52.266;10.522;2022-10-15T16:18:14;19.90;99.90
1538;DHT22;12022;52.266;10.522;2022-10-15T16:20:41;19.80;99.90
1538;DHT22;12022;52.266;10.522;2022-10-15T16:23:15;19.80;99.90
1538;DHT22;12022;52.266;10.522;2022-10-15T16:25:44;19.70;99.90
1538;DHT22;12022;52.266;10.522;2022-10-15T16:28:11;19.60;99.90
1538;DHT22;12022;52.266;10.522;2022-10-15T16:30:47;19.50;99.90
1538;DHT22;12022;52.266;10.522;2022-10-15T16:33:31;19.20;99.90
1538;DHT22;12022;52.266;10.522;2022-10-15T16:35:57;19.20;99.90
1538;DHT22;12022;52.266;10.522;2022-10-15T16:38:24;19.10;99.90
1538;DHT22;12022;52.266;10.522;2022-10-15T16:40:51;19.10;99.90
1538;DHT22;12022;52.266;10.522;2022-10-15T16:43:18;19.10;99.90
1538;DHT22;12022;52.266;10.522;2022-10-15T16:45:56;19.00;99.90
1538;DHT22;12022;52.266;10.522;2022-10-15T16:48:24;19.00;99.90
1538;DHT22;12022;52.266;10.522;2022-10-15T16:51:18;18.90;99.90
1538;DHT22;12022;52.266;10.522;2022-10-15T16:53:46;19.00;99.90
1538;DHT22;12022;52.266;10.522;2022-10-15T16:56:15;19.00;99.90
1538;DHT22;12022;52.266;10.522;2022-10-15T16:58:43;18.90;99.90
1538;DHT22;12022;52.266;10.522;2022-10-15T17:01:11;18.90;99.90
1538;DHT22;12022;52.266;10.522;2022-10-15T17:03:40;18.90;99.90
1538;DHT22;12022;52.266;10.522;2022-10-15T17:06:09;18.90;99.90
1538;DHT22;12022;52.266;10.522;2022-10-15T17:11:03;18.60;99.90
1538;DHT22;12022;52.266;10.522;2022-10-15T17:13:30;18.60;99.90
1538;DHT22;12022;52.266;10.522;2022-10-15T17:16:24;18.50;99.90
1538;DHT22;12022;52.266;10.522;2022-10-15T17:18:51;18.50;99.90
1538;DHT22;12022;52.266;10.522;2022-10-15T17:21:22;18.40;99.90
1538;DHT22;12022;52.266;10.522;2022-10-15T17:23:50;18.30;99.90
1538;DHT22;12022;52.266;10.522;2022-10-15T17:26:20;18.30;99.90
1538;DHT22;12022;52.266;10.522;2022-10-15T17:28:48;18.20;99.90
1538;DHT22;12022;52.266;10.522;2022-10-15T17:31:18;18.20;99.90
1538;DHT22;12022;52.266;10.522;2022-10-15T17:33:46;18.20;99.90
1538;DHT22;12022;52.266;10.522;2022-10-15T17:36:19;18.10;99.90
1538;DHT22;12022;52.266;10.522;2022-10-15T17:38:47;18.10;99.90
1538;DHT22;12022;52.266;10.522;2022-10-15T17:44:11;18.10;99.90
1538;DHT22;12022;52.266;10.522;2022-10-15T17:46:38;18.10;99.90
1538;DHT22;12022;52.266;10.522;2022-10-15T17:49:06;18.10;99.90
1538;DHT22;12022;52.266;10.522;2022-10-15T17:51:35;18.00;99.90
1538;DHT22;12022;52.266;10.522;2022-10-15T17:54:02;18.00;99.90
1538;DHT22;12022;52.266;10.522;2022-10-15T17:56:31;18.00;99.90
1538;DHT22;12022;52.266;10.522;2022-10-15T18:02:22;17.90;99.90
1538;DHT22;12022;52.266;10.522;2022-10-15T18:05:05;17.80;99.90
1538;DHT22;12022;52.266;10.522;2022-10-15T18:07:33;17.90;99.90
1538;DHT22;12022;52.266;10.522;2022-10-15T18:10:00;17.90;99.90